Time;durP1;ratioP1;P1;durP2;ratioP2;P2;SDS_P1;SDS_P2;PMS_P1;PMS_P2;Temp;Humidity;BMP_temperature;BMP_pressure;BME280_temperature;BME280_humidity;BME280_pressure;Samples;Min_cycle;Max_cycle;Signal;HPM_P1;HPM_P2
2021/11/28 00:01:18;;;;;;;14.90;9.65;;;1.60;31.60;;;;;;5083769;28;20052;-70
2021/11/28 00:03:55;;;;;;;19.00;9.82;;;1.50;31.80;;;;;;5084879;28;20089;-70
2021/11/28 00:06:29;;;;;;;13.13;9.10;;;1.60;33.90;;;;;;5082610;28;20363;-70
2021/11/28 00:11:58;;;;;;;15.80;9.18;;;1.40;34.90;;;;;;5069964;28;20074;-70
2021/11/28 00:14:26;;;;;;;14.32;10.23;;;1.30;35.00;;;;;;5083743;28;20064;-71
2021/11/28 00:16:59;;;;;;;13.13;8.52;;;1.30;35.90;;;;;;5077104;28;20036;-71
2021/11/28 00:19:30;;;;;;;14.77;9.40;;;1.30;36.30;;;;;;5081843;28;20074;-70
2021/11/28 00:22:03;;;;;;;16.35;10.32;;;1.30;36.80;;;;;;5082563;28;20040;-70
2021/11/28 00:24:36;;;;;;;;;;;1.40;38.40;;;;;;5083717;28;20050;-69
2021/11/28 00:27:05;;;;;;;14.45;10.35;;;1.40;38.10;;;;;;5079374;28;19962;-70
2021/11/28 00:29:36;;;;;;;13.80;9.70;;;1.50;37.30;;;;;;5086978;28;20434;-70
2021/11/28 00:32:05;;;;;;;16.88;10.63;;;1.50;36.70;;;;;;5081914;28;20105;-69
2021/11/28 00:34:35;;;;;;;15.48;10.32;;;1.40;35.70;;;;;;5083151;28;20044;-70
2021/11/28 00:37:08;;;;;;;14.25;10.73;;;1.50;36.30;;;;;;5082517;28;20055;-70
2021/11/28 00:39:37;;;;;;;12.38;9.00;;;1.50;35.90;;;;;;5080438;28;20046;-70
2021/11/28 00:42:06;;;;;;;18.10;10.65;;;1.30;35.60;;;;;;5082435;28;20056;-70
2021/11/28 00:44:36;;;;;;;14.60;9.85;;;1.40;36.70;;;;;;5082292;28;20101;-70
2021/11/28 00:47:04;;;;;;;14.95;10.05;;;1.50;35.40;;;;;;5080652;28;20507;-70
2021/11/28 00:49:34;;;;;;;14.88;9.75;;;1.50;34.30;;;;;;5083571;28;20168;-69
2021/11/28 00:52:07;;;;;;;14.70;9.73;;;1.50;33.50;;;;;;5083233;28;20048;-70
2021/11/28 00:54:36;;;;;;;15.32;9.43;;;1.50;32.50;;;;;;5079241;28;20048;-70
2021/11/28 00:57:06;;;;;;;13.48;9.95;;;1.50;33.30;;;;;;5080772;28;20525;-70
2021/11/28 00:59:33;;;;;;;15.45;9.75;;;1.50;33.00;;;;;;5077734;28;20419;-70
2021/11/28 01:02:02;;;;;;;14.98;9.70;;;1.50;33.00;;;;;;5080886;28;20461;-70
2021/11/28 01:04:33;;;;;;;16.77;10.18;;;1.50;33.60;;;;;;5084702;28;20123;-70
2021/11/28 01:07:01;;;;;;;13.18;9.30;;;1.50;33.70;;;;;;5078493;28;20066;-70
2021/11/28 01:09:30;;;;;;;13.80;9.52;;;1.40;34.40;;;;;;5082086;28;20123;-69
2021/11/28 01:11:58;;;;;;;13.38;9.73;;;1.40;35.10;;;;;;5074104;28;20943;-71
2021/11/28 01:14:27;;;;;;;14.00;10.38;;;1.40;35.40;;;;;;5080839;28;20047;-70
2021/11/28 01:16:56;;;;;;;15.32;9.60;;;1.40;35.10;;;;;;5080469;28;20064;-70
2021/11/28 01:19:27;;;;;;;16.50;9.93;;;1.40;35.10;;;;;;5081123;28;20093;-69
2021/11/28 01:21:59;;;;;;;12.85;9.10;;;1.40;34.70;;;;;;5081561;28;20462;-70
2021/11/28 01:24:27;;;;;;;14.40;9.88;;;1.30;33.30;;;;;;5082802;28;20495;-69
2021/11/28 01:26:58;;;;;;;14.00;10.10;;;1.30;35.10;;;;;;5080994;28;20047;-70
2021/11/28 01:29:26;;;;;;;17.25;10.57;;;1.20;34.90;;;;;;5077289;28;20052;-70
2021/11/28 01:31:55;;;;;;;14.90;10.93;;;1.30;35.00;;;;;;5081947;28;20048;-70
2021/11/28 01:34:24;;;;;;;12.93;9.07;;;1.30;34.90;;;;;;5080260;28;20514;-70
2021/11/28 01:36:52;;;;;;;15.07;10.18;;;1.30;34.60;;;;;;5076233;28;20450;-70
2021/11/28 01:39:23;;;;;;;16.35;10.75;;;1.30;34.30;;;;;;5084735;28;20131;-69
2021/11/28 01:41:53;;;;;;;14.38;9.98;;;1.40;34.20;;;;;;5080215;28;20161;-70
2021/11/28 01:44:25;;;;;;;17.27;11.07;;;1.40;34.40;;;;;;5083916;28;20040;-69
2021/11/28 01:46:53;;;;;;;13.80;9.48;;;1.50;35.20;;;;;;5082181;28;20066;-69
2021/11/28 01:49:25;;;;;;;17.65;9.57;;;1.50;35.20;;;;;;5082200;28;20040;-69
2021/11/28 01:51:57;;;;;;;16.10;9.35;;;1.50;35.50;;;;;;5082701;28;20044;-69
2021/11/28 01:54:25;;;;;;;13.38;9.30;;;1.50;35.50;;;;;;5082339;28;20048;-69
2021/11/28 01:56:53;;;;;;;11.93;8.88;;;1.50;35.20;;;;;;5081720;28;20127;-69
2021/11/28 01:59:21;;;;;;;15.07;10.55;;;1.50;34.70;;;;;;5083778;28;20515;-69
2021/11/28 02:01:51;;;;;;;15.63;10.23;;;1.50;34.50;;;;;;5079836;28;20059;-69
2021/11/28 02:04:20;;;;;;;15.75;10.70;;;1.40;35.50;;;;;;5081563;28;20135;-68
2021/11/28 02:06:49;;;;;;;18.05;11.05;;;1.20;37.50;;;;;;5081428;28;20032;-68
2021/11/28 02:09:24;;;;;;;14.95;10.25;;;1.20;39.10;;;;;;5083062;28;20044;-69
2021/11/28 02:11:54;;;;;;;16.10;10.43;;;1.20;39.60;;;;;;5078677;28;20056;-68
2021/11/28 02:14:23;;;;;;;15.45;9.90;;;1.20;40.20;;;;;;5084027;28;20483;-69
2021/11/28 02:16:56;;;;;;;14.77;10.40;;;1.20;40.60;;;;;;5078676;28;20503;-69
2021/11/28 02:19:24;;;;;;;17.10;10.77;;;1.30;40.80;;;;;;5077017;28;20047;-69
2021/11/28 02:21:54;;;;;;;14.93;9.68;;;1.30;41.20;;;;;;5080267;28;20050;-69
2021/11/28 02:24:24;;;;;;;12.02;8.55;;;1.30;41.10;;;;;;5083348;28;20637;-69
2021/11/28 02:26:53;;;;;;;11.73;8.57;;;1.30;39.70;;;;;;5081186;28;20046;-69
2021/11/28 02:29:27;;;;;;;10.20;8.25;;;1.30;39.10;;;;;;5086023;28;20119;-68
2021/11/28 02:31:54;;;;;;;11.52;7.82;;;1.40;37.40;;;;;;5086645;28;20047;-68
2021/11/28 02:34:23;;;;;;;12.15;8.45;;;1.40;35.10;;;;;;5088338;28;20074;-68
2021/11/28 02:36:52;;;;;;;11.00;8.10;;;1.50;35.00;;;;;;5083564;28;20552;-68
2021/11/28 02:39:25;;;;;;;11.07;7.45;;;1.50;34.50;;;;;;5084434;28;20097;-68
2021/11/28 02:41:57;;;;;;;12.98;8.38;;;1.50;34.20;;;;;;5081753;28;20069;-68
2021/11/28 02:44:26;;;;;;;12.63;9.27;;;1.60;33.60;;;;;;5087815;28;20141;-69
2021/11/28 02:46:59;;;;;;;14.38;9.00;;;1.60;33.30;;;;;;5082955;28;20044;-69
2021/11/28 02:49:27;;;;;;;13.77;7.40;;;1.60;33.50;;;;;;5063932;28;20048;-70
2021/11/28 02:51:58;;;;;;;12.95;8.52;;;1.50;32.50;;;;;;5084905;28;20444;-70
2021/11/28 02:54:31;;;;;;;13.70;7.75;;;1.60;32.70;;;;;;5084654;28;20037;-70
2021/11/28 02:57:00;;;;;;;12.80;7.82;;;1.50;32.30;;;;;;5079520;28;20040;-70
2021/11/28 02:59:29;;;;;;;11.05;7.40;;;1.50;32.20;;;;;;5083006;28;20594;-68
2021/11/28 03:01:56;;;;;;;11.68;7.38;;;1.50;32.50;;;;;;5084645;28;20633;-69
2021/11/28 03:04:25;;;;;;;12.13;7.75;;;1.50;32.10;;;;;;5088025;28;20109;-69
2021/11/28 03:06:53;;;;;;;14.55;7.28;;;1.50;31.50;;;;;;5079227;28;20150;-69
2021/11/28 03:09:24;;;;;;;11.32;7.72;;;1.50;31.30;;;;;;5086226;28;20048;-71
2021/11/28 03:11:57;;;;;;;13.98;7.38;;;1.50;31.90;;;;;;5080511;28;20044;-69
2021/11/28 03:14:26;;;;;;;9.80;7.07;;;1.60;32.00;;;;;;5085642;28;20047;-69
2021/11/28 03:16:55;;;;;;;13.07;7.38;;;1.60;31.00;;;;;;5084275;28;20047;-69
2021/11/28 03:19:23;;;;;;;11.07;6.95;;;1.50;31.30;;;;;;5083711;28;20080;-70
2021/11/28 03:21:51;;;;;;;9.07;6.68;;;1.50;31.00;;;;;;5083890;28;20066;-69
2021/11/28 03:24:22;;;;;;;9.82;7.13;;;1.50;30.40;;;;;;5086719;28;20059;-69
2021/11/28 03:26:53;;;;;;;15.55;8.65;;;1.50;32.00;;;;;;5082488;28;20061;-70
2021/11/28 03:29:25;;;;;;;10.85;7.90;;;1.40;34.10;;;;;;5084969;28;21631;-70
2021/11/28 03:31:56;;;;;;;12.10;8.52;;;1.50;35.80;;;;;;5084875;28;20185;-69
2021/11/28 03:34:27;;;;;;;11.48;7.88;;;1.50;36.10;;;;;;5070160;28;20140;-69
2021/11/28 03:36:58;;;;;;;12.18;8.30;;;1.40;36.60;;;;;;5083654;28;20056;-69
2021/11/28 03:39:30;;;;;;;12.18;8.63;;;1.40;37.60;;;;;;5084658;28;20039;-70
2021/11/28 03:42:01;;;;;;;13.65;8.15;;;1.40;38.70;;;;;;5083293;28;20131;-69
2021/11/28 03:44:37;;;;;;;12.48;8.20;;;1.30;38.60;;;;;;5087379;28;20093;-69
2021/11/28 03:47:05;;;;;;;13.93;9.07;;;1.40;39.20;;;;;;5079825;28;20503;-69
2021/11/28 03:49:38;;;;;;;14.18;10.02;;;1.40;39.10;;;;;;5085382;28;20051;-68
2021/11/28 03:52:08;;;;;;;15.20;10.35;;;1.30;39.10;;;;;;5086455;28;20044;-69
2021/11/28 03:54:39;;;;;;;15.13;10.10;;;1.20;39.80;;;;;;5081820;28;20052;-69
2021/11/28 03:57:07;;;;;;;15.43;10.35;;;1.20;40.20;;;;;;5081714;28;20059;-69
2021/11/28 03:59:36;;;;;;;17.67;10.57;;;1.20;40.60;;;;;;5085620;28;20127;-69
2021/11/28 04:02:06;;;;;;;15.13;10.48;;;1.10;40.80;;;;;;5082606;28;20044;-69
2021/11/28 04:04:35;;;;;;;19.35;12.30;;;1.20;41.20;;;;;;5085685;28;20138;-69
2021/11/28 04:07:05;;;;;;;16.67;11.00;;;1.20;41.80;;;;;;5082744;28;20230;-69
2021/11/28 04:09:37;;;;;;;16.98;11.32;;;1.10;41.90;;;;;;5081413;28;20091;-69
2021/11/28 04:12:06;;;;;;;14.93;9.70;;;1.10;42.80;;;;;;5087345;28;20056;-69
2021/11/28 04:14:40;;;;;;;16.85;10.27;;;1.10;42.10;;;;;;5083259;28;20252;-68
2021/11/28 04:17:12;;;;;;;16.35;11.10;;;1.10;43.10;;;;;;5078280;28;20121;-68
2021/11/28 04:19:44;;;;;;;14.00;10.05;;;1.10;43.30;;;;;;5086367;28;20044;-68
2021/11/28 04:22:12;;;;;;;17.23;10.65;;;1.10;43.10;;;;;;5083568;28;20079;-69
2021/11/28 04:24:40;;;;;;;16.98;9.80;;;1.20;43.70;;;;;;5083973;28;20068;-68
2021/11/28 04:27:08;;;;;;;17.65;10.80;;;1.20;43.20;;;;;;5081921;28;20047;-68
2021/11/28 04:29:41;;;;;;;16.20;9.85;;;1.20;43.50;;;;;;5068244;28;20073;-69
2021/11/28 04:32:10;;;;;;;17.58;10.77;;;1.30;43.60;;;;;;5058223;28;20060;-68
2021/11/28 04:34:38;;;;;;;15.23;10.32;;;1.40;44.30;;;;;;5056305;28;20464;-67
2021/11/28 04:37:06;;;;;;;16.23;10.68;;;1.40;43.60;;;;;;5042693;28;20115;-68
2021/11/28 04:39:34;;;;;;;15.65;10.15;;;1.40;43.10;;;;;;5063637;28;20068;-68
2021/11/28 04:42:05;;;;;;;14.70;10.13;;;1.30;43.30;;;;;;5055297;28;20053;-69
2021/11/28 04:44:33;;;;;;;14.68;10.00;;;1.20;42.60;;;;;;5060204;28;20123;-68
2021/11/28 04:47:03;;;;;;;16.13;10.32;;;1.30;43.80;;;;;;5077258;28;20131;-68
2021/11/28 04:49:33;;;;;;;15.38;9.32;;;1.30;43.60;;;;;;5079258;28;20048;-68
2021/11/28 04:52:01;;;;;;;11.30;8.32;;;1.30;43.60;;;;;;5083689;28;20040;-68
2021/11/28 04:54:32;;;;;;;14.45;9.32;;;1.30;43.40;;;;;;5078848;28;20071;-69
2021/11/28 04:57:04;;;;;;;12.35;8.43;;;1.40;43.70;;;;;;5073359;28;20043;-68
2021/11/28 04:59:32;;;;;;;11.85;8.13;;;1.50;43.40;;;;;;5076680;28;20050;-68
2021/11/28 05:02:05;;;;;;;11.30;7.20;;;1.50;42.90;;;;;;5076714;28;20036;-67
2021/11/28 05:04:34;;;;;;;10.35;7.32;;;1.60;42.70;;;;;;5081733;28;20052;-67
2021/11/28 05:07:02;;;;;;;12.55;7.60;;;1.60;41.60;;;;;;5079531;28;20032;-69
2021/11/28 05:09:29;;;;;;;12.23;6.65;;;1.60;40.70;;;;;;5074768;28;20044;-69
2021/11/28 05:11:57;;;;;;;7.80;5.97;;;1.60;39.40;;;;;;5083448;28;20127;-69
2021/11/28 05:14:28;;;;;;;8.73;6.50;;;1.60;38.40;;;;;;5084580;28;20044;-68
2021/11/28 05:16:56;;;;;;;11.05;6.38;;;1.70;36.40;;;;;;5077533;28;20059;-68
2021/11/28 05:19:26;;;;;;;9.02;6.28;;;1.70;35.90;;;;;;5083256;28;20449;-68
2021/11/28 05:21:54;;;;;;;9.85;6.28;;;1.70;34.80;;;;;;5082207;28;20174;-68
2021/11/28 05:24:25;;;;;;;8.27;6.60;;;1.70;33.60;;;;;;5082627;28;20483;-68
2021/11/28 05:26:57;;;;;;;11.57;6.50;;;1.70;34.30;;;;;;5081063;28;20036;-68
2021/11/28 05:29:25;;;;;;;13.02;6.75;;;1.60;35.10;;;;;;5081816;28;20044;-68
2021/11/28 05:31:54;;;;;;;10.10;7.70;;;1.60;35.60;;;;;;5081249;28;20048;-69
2021/11/28 05:34:23;;;;;;;12.23;7.63;;;1.60;36.70;;;;;;5084101;28;20064;-69
2021/11/28 05:36:52;;;;;;;12.48;8.85;;;1.60;37.80;;;;;;5081143;28;20056;-68
2021/11/28 05:39:25;;;;;;;11.82;7.60;;;1.60;38.50;;;;;;5082161;28;20040;-69
2021/11/28 05:41:54;;;;;;;10.40;7.20;;;1.60;38.60;;;;;;5083222;28;20040;-69
2021/11/28 05:44:22;;;;;;;12.75;6.90;;;1.60;38.40;;;;;;5079939;28;20131;-68
2021/11/28 05:46:53;;;;;;;10.15;6.47;;;1.60;37.90;;;;;;5081514;28;20040;-68
2021/11/28 05:49:26;;;;;;;9.93;6.30;;;1.50;38.10;;;;;;5079039;28;20105;-68
2021/11/28 05:51:59;;;;;;;8.60;5.82;;;1.60;38.10;;;;;;5082385;28;20051;-67
2021/11/28 05:54:32;;;;;;;12.75;7.97;;;1.60;37.80;;;;;;5076609;28;20044;-69
2021/11/28 05:57:02;;;;;;;12.38;7.68;;;1.60;38.40;;;;;;5081801;28;20065;-69
2021/11/28 05:59:30;;;;;;;13.13;8.35;;;1.60;39.30;;;;;;5081948;28;20048;-69
2021/11/28 06:02:01;;;;;;;10.27;7.50;;;1.60;39.30;;;;;;5086061;28;20469;-68
2021/11/28 06:04:30;;;;;;;10.40;7.05;;;1.60;39.40;;;;;;5086594;28;20048;-69
2021/11/28 06:06:59;;;;;;;12.52;8.18;;;1.50;39.30;;;;;;5083612;28;20047;-69
2021/11/28 06:09:28;;;;;;;11.82;8.35;;;1.60;40.00;;;;;;5084510;28;20040;-69
2021/11/28 06:11:58;;;;;;;11.35;7.32;;;1.60;40.30;;;;;;5086648;28;20116;-68
2021/11/28 06:14:30;;;;;;;11.07;7.97;;;1.60;40.40;;;;;;5088014;28;20055;-69
2021/11/28 06:16:58;;;;;;;11.23;8.45;;;1.50;40.20;;;;;;5084908;28;20190;-69
2021/11/28 06:19:26;;;;;;;11.88;7.43;;;1.50;40.60;;;;;;5083220;28;20503;-67
2021/11/28 06:21:54;;;;;;;13.82;8.57;;;1.50;40.10;;;;;;5086033;28;20127;-69
2021/11/28 06:24:29;;;;;;;13.95;9.02;;;1.50;40.80;;;;;;5086194;28;20040;-70
2021/11/28 06:26:58;;;;;;;12.55;8.38;;;1.50;41.10;;;;;;5080692;28;20036;-68
2021/11/28 06:29:26;;;;;;;14.48;8.77;;;1.60;41.60;;;;;;5087312;28;20043;-68
2021/11/28 06:32:00;;;;;;;12.32;8.82;;;1.60;41.10;;;;;;5081299;28;20415;-68
2021/11/28 06:34:28;;;;;;;15.05;8.68;;;1.60;41.20;;;;;;5087185;28;20032;-68
2021/11/28 06:36:59;;;;;;;10.98;7.00;;;1.60;41.10;;;;;;5082128;28;20048;-68
2021/11/28 06:39:28;;;;;;;9.57;6.43;;;1.60;40.40;;;;;;5085129;28;20044;-69
2021/11/28 06:41:57;;;;;;;9.05;4.68;;;1.60;39.50;;;;;;5086673;28;20127;-68
2021/11/28 06:44:24;;;;;;;7.82;4.78;;;1.70;39.50;;;;;;5089175;28;20127;-68
2021/11/28 06:46:52;;;;;;;7.88;4.20;;;1.70;37.70;;;;;;5080723;28;20041;-68
2021/11/28 06:49:26;;;;;;;5.88;4.47;;;1.60;35.70;;;;;;5087781;28;20135;-68
2021/11/28 06:51:59;;;;;;;8.50;5.28;;;1.60;34.50;;;;;;5084491;28;20067;-68
2021/11/28 06:54:34;;;;;;;7.32;4.38;;;1.70;33.10;;;;;;5085967;28;20055;-69
2021/11/28 06:57:03;;;;;;;6.72;4.60;;;1.70;33.20;;;;;;5089468;28;20067;-68
2021/11/28 06:59:32;;;;;;;11.95;6.15;;;1.60;33.70;;;;;;5083600;28;20491;-68
2021/11/28 07:02:03;;;;;;;8.15;6.32;;;1.60;34.80;;;;;;5082645;28;20064;-68
2021/11/28 07:04:32;;;;;;;8.85;6.05;;;1.60;35.10;;;;;;5089431;28;20557;-68
2021/11/28 07:07:03;;;;;;;9.77;6.60;;;1.60;35.20;;;;;;5077407;28;20115;-68
2021/11/28 07:09:31;;;;;;;10.95;6.68;;;1.60;35.30;;;;;;5083976;28;20072;-69
2021/11/28 07:12:08;;;;;;;11.88;8.07;;;1.70;35.30;;;;;;5085456;28;20036;-70
2021/11/28 07:14:37;;;;;;;13.88;8.32;;;1.60;34.90;;;;;;5084918;28;20043;-68
2021/11/28 07:17:10;;;;;;;12.73;8.27;;;1.60;35.00;;;;;;5080368;28;20040;-68
2021/11/28 07:19:43;;;;;;;9.18;7.07;;;1.60;34.70;;;;;;5085970;28;20056;-69
2021/11/28 07:22:14;;;;;;;10.65;7.78;;;1.70;34.80;;;;;;5081227;28;20052;-67
2021/11/28 07:24:44;;;;;;;12.15;6.68;;;1.80;34.90;;;;;;5086226;28;20339;-68
2021/11/28 07:27:16;;;;;;;11.23;7.32;;;1.70;34.20;;;;;;5084557;28;20082;-68
2021/11/28 07:29:47;;;;;;;11.02;7.13;;;1.70;33.20;;;;;;5083313;28;20079;-67
2021/11/28 07:32:15;;;;;;;12.15;6.68;;;1.70;32.70;;;;;;5086220;28;20656;-69
2021/11/28 07:34:44;;;;;;;8.98;6.55;;;1.70;32.50;;;;;;5082585;28;20044;-67
2021/11/28 07:37:14;;;;;;;10.98;6.78;;;1.60;32.10;;;;;;5081834;28;20040;-69
2021/11/28 07:39:44;;;;;;;11.27;6.97;;;1.60;33.30;;;;;;5085975;28;20040;-68
2021/11/28 07:42:13;;;;;;;14.52;6.78;;;1.70;34.00;;;;;;5082096;28;20105;-68
2021/11/28 07:44:45;;;;;;;9.32;6.32;;;1.60;33.80;;;;;;5083072;28;20052;-68
2021/11/28 07:47:16;;;;;;;11.02;6.38;;;1.70;33.80;;;;;;5081345;28;20059;-67
2021/11/28 07:49:44;;;;;;;9.18;6.20;;;1.70;33.30;;;;;;5077636;28;20212;-68
2021/11/28 07:52:12;;;;;;;10.40;7.00;;;1.70;32.70;;;;;;5083454;28;20818;-68
2021/11/28 07:54:45;;;;;;;9.20;6.03;;;1.60;33.20;;;;;;5085125;28;20042;-68
2021/11/28 07:57:14;;;;;;;9.02;6.53;;;1.70;33.60;;;;;;5080195;28;20055;-68
2021/11/28 07:59:44;;;;;;;10.30;6.97;;;1.70;33.50;;;;;;5083378;28;20051;-68
2021/11/28 08:02:15;;;;;;;9.40;5.95;;;1.80;34.20;;;;;;5083441;28;20135;-69
2021/11/28 08:04:43;;;;;;;9.30;6.10;;;1.80;33.40;;;;;;5080738;28;20037;-69
2021/11/28 08:07:19;;;;;;;9.07;6.15;;;1.80;33.20;;;;;;5084132;28;20040;-69
2021/11/28 08:09:49;;;;;;;9.68;5.40;;;1.80;31.80;;;;;;5082580;28;20044;-67
2021/11/28 08:12:23;;;;;;;10.45;6.25;;;1.90;32.30;;;;;;5083053;28;20098;-68
2021/11/28 08:14:56;;;;;;;8.68;6.25;;;1.90;31.30;;;;;;5064929;28;20127;-69
2021/11/28 08:17:24;;;;;;;9.13;6.25;;;1.90;31.30;;;;;;5082368;28;20129;-69
2021/11/28 08:19:58;;;;;;;10.27;6.83;;;2.00;31.70;;;;;;5085172;28;20062;-69
2021/11/28 08:22:26;;;;;;;11.25;7.18;;;2.00;31.40;;;;;;5072582;28;20136;-68
2021/11/28 08:24:54;;;;;;;10.65;7.15;;;2.00;30.70;;;;;;5080535;28;20124;-68
2021/11/28 08:27:22;;;;;;;11.93;6.68;;;2.10;31.40;;;;;;5082235;28;20044;-69
2021/11/28 08:29:51;;;;;;;10.25;7.28;;;2.10;31.40;;;;;;5087275;28;20145;-68
2021/11/28 08:32:20;;;;;;;10.25;7.20;;;2.10;31.50;;;;;;5081323;28;20037;-69
2021/11/28 08:34:55;;;;;;;10.63;6.90;;;2.10;30.60;;;;;;5085210;28;20586;-68
2021/11/28 08:37:27;;;;;;;10.82;6.80;;;2.20;30.20;;;;;;5053321;28;20066;-70
2021/11/28 08:39:57;;;;;;;10.50;6.78;;;2.20;29.40;;;;;;5084984;28;20036;-68
2021/11/28 08:42:26;;;;;;;9.98;6.57;;;2.30;29.10;;;;;;5084583;28;20063;-69
2021/11/28 08:44:55;;;;;;;8.15;6.28;;;2.20;28.50;;;;;;5082346;28;20044;-69
2021/11/28 08:47:25;;;;;;;10.60;6.32;;;2.30;28.70;;;;;;5082233;28;20079;-67
2021/11/28 08:49:53;;;;;;;11.40;6.55;;;2.40;29.10;;;;;;5080486;28;20081;-66
2021/11/28 08:52:27;;;;;;;9.30;6.10;;;2.40;28.10;;;;;;5079093;28;20063;-68
2021/11/28 08:55:01;;;;;;;10.57;6.10;;;2.50;28.40;;;;;;5081317;28;20040;-68
2021/11/28 08:57:29;;;;;;;10.50;6.82;;;2.50;27.40;;;;;;5081652;28;20127;-69
2021/11/28 08:59:57;;;;;;;10.00;6.03;;;2.60;26.10;;;;;;5082501;28;20032;-68
2021/11/28 09:02:33;;;;;;;;;;;2.60;25.60;;;;;;5081891;28;20048;-69
2021/11/28 09:05:02;;;;;;;10.10;7.03;;;2.50;25.60;;;;;;5081288;28;19959;-67
2021/11/28 09:07:32;;;;;;;9.70;7.07;;;2.60;25.90;;;;;;5079050;28;20810;-68
2021/11/28 09:10:02;;;;;;;20.38;8.48;;;2.60;25.90;;;;;;5081317;28;20121;-68
2021/11/28 09:12:30;;;;;;;10.10;7.75;;;2.60;24.90;;;;;;5079302;28;20040;-68
2021/11/28 09:14:59;;;;;;;9.85;7.40;;;2.60;24.90;;;;;;5080436;28;20047;-69
2021/11/28 09:17:27;;;;;;;14.07;8.48;;;2.60;25.70;;;;;;5081189;28;20543;-69
2021/11/28 09:20:00;;;;;;;12.00;7.75;;;2.70;25.80;;;;;;5084614;28;20626;-69
2021/11/28 09:24:24;;;;;;;10.45;7.25;;;2.80;25.30;;;;;;5079682;28;20119;-68
2021/11/28 09:25:24;;;;;;;9.57;6.85;;;2.80;25.00;;;;;;5054493;28;20464;-68
2021/11/28 09:27:55;;;;;;;11.75;7.65;;;2.80;24.50;;;;;;5080710;28;20062;-68
2021/11/28 09:30:28;;;;;;;12.25;7.80;;;2.80;24.20;;;;;;5082915;28;20093;-68
2021/11/28 09:33:01;;;;;;;9.93;6.93;;;2.80;24.80;;;;;;5081797;28;20043;-68
2021/11/28 09:35:32;;;;;;;10.52;7.20;;;2.90;24.20;;;;;;5081345;28;20515;-68
2021/11/28 09:38:00;;;;;;;9.77;7.00;;;2.80;23.10;;;;;;5077297;28;20241;-68
2021/11/28 09:40:28;;;;;;;14.10;8.30;;;2.90;23.70;;;;;;5084601;28;20079;-68
2021/11/28 09:43:00;;;;;;;12.85;7.15;;;2.90;22.80;;;;;;5080077;28;20127;-68
2021/11/28 09:45:30;;;;;;;9.13;6.75;;;2.80;22.10;;;;;;5084650;28;20039;-68
2021/11/28 09:48:01;;;;;;;12.15;7.70;;;2.80;22.20;;;;;;5078759;28;20483;-68
2021/11/28 09:50:34;;;;;;;9.38;6.55;;;2.90;22.60;;;;;;5082502;28;20042;-68
2021/11/28 09:53:06;;;;;;;12.77;7.35;;;3.00;23.60;;;;;;5081367;28;20052;-68
2021/11/28 09:55:34;;;;;;;9.30;5.95;;;3.10;22.70;;;;;;5084045;28;20048;-68
2021/11/28 09:58:03;;;;;;;10.38;6.13;;;3.00;21.80;;;;;;5078090;28;20044;-68
2021/11/28 10:00:35;;;;;;;10.43;8.25;;;3.10;21.80;;;;;;5074752;28;20119;-69
2021/11/28 10:03:04;;;;;;;15.98;9.30;;;2.90;25.10;;;;;;5058570;28;20143;-69
2021/11/28 10:05:34;;;;;;;11.75;8.65;;;2.70;26.90;;;;;;5059513;28;20385;-69
2021/11/28 10:08:06;;;;;;;13.80;9.07;;;2.80;29.50;;;;;;5056127;28;20408;-69
2021/11/28 10:10:35;;;;;;;12.25;8.27;;;2.70;29.00;;;;;;5060500;28;20592;-68
2021/11/28 10:13:09;;;;;;;;;;;2.80;28.40;;;;;;5062206;28;20037;-67
2021/11/28 10:15:37;;;;;;;13.40;8.63;;;2.50;25.00;;;;;;5061258;28;19924;-68
2021/11/28 10:18:10;;;;;;;12.80;8.77;;;2.70;28.30;;;;;;5058861;28;20094;-68
2021/11/28 10:20:47;;;;;;;9.88;8.40;;;2.90;28.50;;;;;;5062816;28;20060;-67
2021/11/28 10:23:17;;;;;;;12.45;7.85;;;2.80;26.50;;;;;;5064706;28;20128;-68
2021/11/28 10:25:45;;;;;;;11.93;7.78;;;3.00;25.90;;;;;;5060140;28;20051;-68
2021/11/28 10:28:15;;;;;;;10.80;7.43;;;3.00;24.00;;;;;;5060604;28;20041;-68
2021/11/28 10:30:46;;;;;;;13.30;7.07;;;2.90;24.00;;;;;;5060480;28;20127;-67
2021/11/28 10:33:16;;;;;;;10.85;6.82;;;3.00;24.00;;;;;;5056069;28;20132;-68
2021/11/28 10:36:03;;;;;;;11.23;6.68;;;3.00;21.70;;;;;;5063772;28;20078;-68
2021/11/28 10:38:38;;;;;;;11.10;7.20;;;2.90;21.70;;;;;;5057714;28;20048;-68
2021/11/28 10:41:19;;;;;;;13.45;7.00;;;2.90;22.80;;;;;;5058508;28;20057;-68
2021/11/28 10:43:51;;;;;;;11.02;7.20;;;2.90;22.40;;;;;;5064423;28;20072;-68
2021/11/28 10:46:27;;;;;;;10.10;6.72;;;3.00;23.20;;;;;;5059066;28;20080;-67
2021/11/28 10:49:07;;;;;;;11.25;7.53;;;2.90;24.10;;;;;;5062211;28;20056;-67
2021/11/28 10:51:38;;;;;;;10.30;7.47;;;3.00;24.80;;;;;;5068357;28;20036;-67
2021/11/28 10:54:27;;;;;;;11.77;8.68;;;3.00;25.10;;;;;;5065364;28;20048;-68
2021/11/28 10:57:15;;;;;;;12.18;7.72;;;2.90;25.90;;;;;;5060403;28;20098;-68
2021/11/28 10:59:53;;;;;;;12.57;8.73;;;3.00;25.20;;;;;;5061673;28;20048;-69
2021/11/28 11:02:23;;;;;;;13.23;8.13;;;2.90;25.00;;;;;;5058757;28;20067;-69
2021/11/28 11:04:54;;;;;;;11.77;7.95;;;2.90;25.10;;;;;;5064216;28;20052;-68
2021/11/28 11:07:50;;;;;;;11.25;7.53;;;2.90;24.50;;;;;;5062647;28;20047;-69
2021/11/28 11:10:25;;;;;;;11.23;7.63;;;2.90;25.10;;;;;;5066119;28;20044;-67
2021/11/28 11:12:59;;;;;;;10.98;8.80;;;2.90;26.60;;;;;;5063251;28;20458;-69
2021/11/28 11:15:37;;;;;;;12.50;9.30;;;2.90;25.90;;;;;;5063298;28;20040;-67
2021/11/28 11:18:09;;;;;;;14.85;8.75;;;2.90;26.10;;;;;;5060078;28;20110;-68
2021/11/28 11:20:39;;;;;;;12.63;8.07;;;3.00;25.60;;;;;;5064882;28;20071;-67
2021/11/28 11:23:34;;;;;;;13.80;7.97;;;3.00;25.10;;;;;;5062995;28;20056;-69
2021/11/28 11:26:17;;;;;;;13.77;8.43;;;3.00;25.30;;;;;;5064243;28;20855;-69
2021/11/28 11:29:06;;;;;;;12.23;8.88;;;3.00;25.30;;;;;;5058472;28;20361;-69
2021/11/28 11:31:39;;;;;;;11.30;8.75;;;2.90;26.60;;;;;;5063465;28;20131;-68
2021/11/28 11:34:24;;;;;;;11.32;7.80;;;2.90;27.00;;;;;;5064452;28;20464;-69
2021/11/28 11:36:57;;;;;;;10.18;7.20;;;3.00;26.40;;;;;;5062387;28;20048;-68
2021/11/28 11:39:29;;;;;;;10.27;7.95;;;2.90;25.10;;;;;;5061678;28;20072;-68
2021/11/28 11:42:01;;;;;;;11.32;7.88;;;2.90;26.60;;;;;;5061935;28;20053;-67
2021/11/28 11:44:35;;;;;;;11.13;7.05;;;3.00;27.00;;;;;;5059221;28;20151;-68
2021/11/28 11:47:04;;;;;;;9.60;6.50;;;3.00;25.10;;;;;;5061558;28;20048;-68
2021/11/28 11:49:34;;;;;;;12.82;6.53;;;3.00;24.00;;;;;;5061366;28;20047;-68
2021/11/28 11:52:04;;;;;;;11.48;6.75;;;3.00;23.10;;;;;;5061392;28;20106;-69
2021/11/28 11:54:43;;;;;;;11.00;7.35;;;3.00;23.40;;;;;;5062244;28;20049;-68
2021/11/28 11:57:15;;;;;;;9.77;6.25;;;3.00;23.70;;;;;;5060043;28;20132;-68
2021/11/28 12:00:02;;;;;;;7.47;5.68;;;2.90;21.70;;;;;;5062820;28;20508;-68
2021/11/28 12:02:34;;;;;;;9.43;5.45;;;3.00;20.30;;;;;;5061474;28;20434;-68
2021/11/28 12:05:29;;;;;;;8.50;5.38;;;3.10;19.10;;;;;;5061950;28;20071;-68
2021/11/28 12:07:59;;;;;;;9.18;5.38;;;3.10;19.40;;;;;;5042121;28;20431;-68
2021/11/28 12:10:31;;;;;;;9.95;5.95;;;3.10;19.10;;;;;;5063820;28;20076;-68
2021/11/28 12:13:06;;;;;;;7.80;5.75;;;3.20;19.50;;;;;;5061118;28;20060;-67
2021/11/28 12:15:39;;;;;;;;;;;3.20;18.80;;;;;;5063878;28;20089;-68
2021/11/28 12:18:08;;;;;;;10.57;5.78;;;3.10;18.40;;;;;;5058761;28;19955;-68
2021/11/28 12:20:57;;;;;;;9.88;6.35;;;3.20;19.90;;;;;;5062310;28;20036;-69
2021/11/28 12:23:59;;;;;;;10.00;6.07;;;3.40;19.80;;;;;;5063500;28;20041;-68
2021/11/28 12:26:42;;;;;;;14.07;6.10;;;3.40;19.00;;;;;;5062042;28;20102;-68
2021/11/28 12:29:45;;;;;;;7.40;5.43;;;3.40;18.30;;;;;;5056776;28;20507;-68
2021/11/28 12:32:26;;;;;;;7.70;5.80;;;3.30;16.70;;;;;;5060171;28;20079;-69
2021/11/28 12:35:07;;;;;;;7.63;5.13;;;3.20;17.10;;;;;;5064326;28;20036;-68
2021/11/28 12:37:40;;;;;;;8.48;5.53;;;3.40;18.50;;;;;;5058993;28;20048;-69
2021/11/28 12:40:25;;;;;;;7.38;5.30;;;3.40;18.60;;;;;;5064182;28;20041;-68
2021/11/28 12:42:58;;;;;;;10.30;5.72;;;3.40;17.60;;;;;;5062601;28;20109;-68
2021/11/28 12:45:32;;;;;;;7.68;4.72;;;3.60;15.20;;;;;;5063854;28;20041;-69
2021/11/28 12:48:10;;;;;;;7.32;5.25;;;3.60;15.20;;;;;;5056210;28;20101;-68
2021/11/28 12:50:58;;;;;;;7.43;4.63;;;3.50;14.60;;;;;;5062046;28;20070;-66
2021/11/28 12:53:37;;;;;;;6.85;5.20;;;3.50;15.20;;;;;;5065130;28;20130;-67
2021/11/28 12:56:21;;;;;;;6.35;4.50;;;3.60;16.00;;;;;;5061069;28;20046;-67
2021/11/28 12:59:22;;;;;;;8.32;4.60;;;3.50;14.70;;;;;;5060361;28;20052;-67
2021/11/28 13:02:00;;;;;;;8.18;5.57;;;3.50;15.20;;;;;;5060121;28;20067;-67
2021/11/28 13:04:50;;;;;;;8.32;5.82;;;3.60;16.90;;;;;;5062598;28;20051;-67
2021/11/28 13:07:25;;;;;;;11.70;6.57;;;3.50;18.70;;;;;;5059480;28;20468;-66
2021/11/28 13:09:56;;;;;;;7.18;5.22;;;3.50;18.90;;;;;;5060853;28;20068;-67
2021/11/28 13:12:28;;;;;;;8.75;5.60;;;3.60;17.30;;;;;;5076842;28;20051;-68
2021/11/28 13:14:58;;;;;;;8.93;5.43;;;3.60;17.00;;;;;;5062122;28;20162;-68